sensor_id;sensor_type;location;lat;lon;timestamp;P1;durP1;ratioP1;P2;durP2;ratioP2
18883;SDS011;9574;47.282;9.640;2024-03-23T00:54:20;1.80;;;1.20;;
18883;SDS011;9574;47.282;9.640;2024-03-23T00:56:46;1.77;;;1.10;;
18883;SDS011;9574;47.282;9.640;2024-03-23T00:59:13;2.77;;;1.20;;
18883;SDS011;9574;47.282;9.640;2024-03-23T01:01:39;2.80;;;1.33;;
18883;SDS011;9574;47.282;9.640;2024-03-23T01:04:06;1.33;;;1.23;;
18883;SDS011;9574;47.282;9.640;2024-03-23T01:06:32;4.93;;;1.30;;
18883;SDS011;9574;47.282;9.640;2024-03-23T01:08:59;2.00;;;1.67;;
18883;SDS011;9574;47.282;9.640;2024-03-23T01:11:26;1.47;;;1.20;;
18883;SDS011;9574;47.282;9.640;2024-03-23T01:13:54;3.43;;;1.27;;
18883;SDS011;9574;47.282;9.640;2024-03-23T01:16:21;2.70;;;1.40;;
18883;SDS011;9574;47.282;9.640;2024-03-23T01:18:48;2.00;;;1.30;;
18883;SDS011;9574;47.282;9.640;2024-03-23T01:21:14;5.27;;;1.53;;
18883;SDS011;9574;47.282;9.640;2024-03-23T01:23:41;3.23;;;1.33;;
18883;SDS011;9574;47.282;9.640;2024-03-23T01:26:07;4.23;;;1.50;;
18883;SDS011;9574;47.282;9.640;2024-03-23T01:28:35;1.97;;;1.30;;
18883;SDS011;9574;47.282;9.640;2024-03-23T01:31:02;1.43;;;1.30;;
18883;SDS011;9574;47.282;9.640;2024-03-23T01:33:29;1.50;;;1.40;;
18883;SDS011;9574;47.282;9.640;2024-03-23T01:35:55;2.07;;;1.20;;
18883;SDS011;9574;47.282;9.640;2024-03-23T01:38:22;1.40;;;1.07;;
18883;SDS011;9574;47.282;9.640;2024-03-23T01:40:48;1.83;;;1.40;;
18883;SDS011;9574;47.282;9.640;2024-03-23T01:43:14;1.97;;;1.37;;
18883;SDS011;9574;47.282;9.640;2024-03-23T01:45:42;1.97;;;1.50;;
18883;SDS011;9574;47.282;9.640;2024-03-23T01:48:09;1.90;;;1.43;;
18883;SDS011;9574;47.282;9.640;2024-03-23T01:50:37;2.00;;;1.17;;
18883;SDS011;9574;47.282;9.640;2024-03-23T01:53:05;2.90;;;1.60;;
18883;SDS011;9574;47.282;9.640;2024-03-23T01:55:31;2.37;;;1.67;;
18883;SDS011;9574;47.282;9.640;2024-03-23T01:57:59;1.50;;;1.40;;
18883;SDS011;9574;47.282;9.640;2024-03-23T02:00:25;1.63;;;1.37;;
18883;SDS011;9574;47.282;9.640;2024-03-23T02:02:54;1.40;;;1.30;;
18883;SDS011;9574;47.282;9.640;2024-03-23T02:05:21;2.80;;;1.50;;
18883;SDS011;9574;47.282;9.640;2024-03-23T02:07:48;2.57;;;1.40;;
18883;SDS011;9574;47.282;9.640;2024-03-23T02:10:14;2.40;;;1.17;;
18883;SDS011;9574;47.282;9.640;2024-03-23T02:12:41;1.17;;;1.00;;
18883;SDS011;9574;47.282;9.640;2024-03-23T02:15:07;1.40;;;1.17;;
18883;SDS011;9574;47.282;9.640;2024-03-23T02:17:35;1.43;;;1.33;;
18883;SDS011;9574;47.282;9.640;2024-03-23T02:20:02;3.67;;;1.60;;
18883;SDS011;9574;47.282;9.640;2024-03-23T02:22:35;1.63;;;1.33;;
18883;SDS011;9574;47.282;9.640;2024-03-23T02:25:03;1.20;;;1.10;;
18883;SDS011;9574;47.282;9.640;2024-03-23T02:27:31;1.93;;;1.33;;
18883;SDS011;9574;47.282;9.640;2024-03-23T02:29:57;2.00;;;1.47;;
18883;SDS011;9574;47.282;9.640;2024-03-23T02:32:24;2.20;;;1.53;;
18883;SDS011;9574;47.282;9.640;2024-03-23T02:34:50;1.70;;;1.13;;
18883;SDS011;9574;47.282;9.640;2024-03-23T02:37:16;1.30;;;1.20;;
18883;SDS011;9574;47.282;9.640;2024-03-23T02:39:42;3.07;;;1.20;;
18883;SDS011;9574;47.282;9.640;2024-03-23T02:42:11;2.67;;;1.73;;
18883;SDS011;9574;47.282;9.640;2024-03-23T02:44:37;2.57;;;1.60;;
18883;SDS011;9574;47.282;9.640;2024-03-23T02:47:04;1.80;;;1.40;;
18883;SDS011;9574;47.282;9.640;2024-03-23T02:49:30;3.33;;;1.50;;
18883;SDS011;9574;47.282;9.640;2024-03-23T02:51:57;2.63;;;1.50;;
18883;SDS011;9574;47.282;9.640;2024-03-23T02:54:23;1.93;;;1.50;;
18883;SDS011;9574;47.282;9.640;2024-03-23T02:56:50;2.10;;;1.50;;
18883;SDS011;9574;47.282;9.640;2024-03-23T02:59:17;3.43;;;1.33;;
18883;SDS011;9574;47.282;9.640;2024-03-23T03:01:44;1.87;;;1.50;;
18883;SDS011;9574;47.282;9.640;2024-03-23T03:04:10;1.73;;;1.30;;
18883;SDS011;9574;47.282;9.640;2024-03-23T03:06:37;4.90;;;1.30;;
18883;SDS011;9574;47.282;9.640;2024-03-23T03:09:03;1.30;;;1.20;;
18883;SDS011;9574;47.282;9.640;2024-03-23T03:11:30;1.40;;;1.20;;
18883;SDS011;9574;47.282;9.640;2024-03-23T03:13:56;2.70;;;1.00;;
18883;SDS011;9574;47.282;9.640;2024-03-23T03:16:26;2.83;;;1.50;;
18883;SDS011;9574;47.282;9.640;2024-03-23T03:18:52;2.40;;;1.07;;
18883;SDS011;9574;47.282;9.640;2024-03-23T03:21:19;2.20;;;1.30;;
18883;SDS011;9574;47.282;9.640;2024-03-23T03:23:45;1.43;;;1.33;;
18883;SDS011;9574;47.282;9.640;2024-03-23T03:26:15;2.63;;;1.40;;
18883;SDS011;9574;47.282;9.640;2024-03-23T03:28:41;2.10;;;1.27;;
18883;SDS011;9574;47.282;9.640;2024-03-23T03:31:13;2.50;;;1.10;;
18883;SDS011;9574;47.282;9.640;2024-03-23T03:33:40;1.20;;;1.10;;
18883;SDS011;9574;47.282;9.640;2024-03-23T03:36:07;2.93;;;1.53;;
18883;SDS011;9574;47.282;9.640;2024-03-23T03:38:34;2.67;;;1.30;;
18883;SDS011;9574;47.282;9.640;2024-03-23T03:41:01;4.10;;;1.70;;
18883;SDS011;9574;47.282;9.640;2024-03-23T03:43:27;1.90;;;1.23;;
18883;SDS011;9574;47.282;9.640;2024-03-23T03:45:54;1.43;;;1.20;;
18883;SDS011;9574;47.282;9.640;2024-03-23T03:48:21;1.90;;;1.40;;
18883;SDS011;9574;47.282;9.640;2024-03-23T03:50:50;2.50;;;1.30;;
18883;SDS011;9574;47.282;9.640;2024-03-23T03:53:17;2.17;;;1.20;;
18883;SDS011;9574;47.282;9.640;2024-03-23T03:55:44;1.73;;;1.03;;
18883;SDS011;9574;47.282;9.640;2024-03-23T03:58:10;1.60;;;1.50;;
18883;SDS011;9574;47.282;9.640;2024-03-23T04:00:37;1.53;;;1.40;;
18883;SDS011;9574;47.282;9.640;2024-03-23T04:03:03;2.40;;;1.63;;
18883;SDS011;9574;47.282;9.640;2024-03-23T04:05:30;3.17;;;1.60;;
18883;SDS011;9574;47.282;9.640;2024-03-23T04:07:58;4.67;;;1.70;;
18883;SDS011;9574;47.282;9.640;2024-03-23T04:10:25;2.23;;;1.70;;
18883;SDS011;9574;47.282;9.640;2024-03-23T04:12:51;1.43;;;1.27;;
18883;SDS011;9574;47.282;9.640;2024-03-23T04:15:18;2.73;;;1.70;;
18883;SDS011;9574;47.282;9.640;2024-03-23T04:17:45;2.67;;;1.50;;
18883;SDS011;9574;47.282;9.640;2024-03-23T04:20:12;2.47;;;1.40;;
18883;SDS011;9574;47.282;9.640;2024-03-23T04:22:39;1.43;;;1.10;;
18883;SDS011;9574;47.282;9.640;2024-03-23T04:25:07;2.63;;;1.50;;
18883;SDS011;9574;47.282;9.640;2024-03-23T04:27:35;1.93;;;1.23;;
18883;SDS011;9574;47.282;9.640;2024-03-23T04:30:02;4.33;;;1.60;;
18883;SDS011;9574;47.282;9.640;2024-03-23T04:32:34;1.87;;;1.50;;
18883;SDS011;9574;47.282;9.640;2024-03-23T04:35:01;1.80;;;1.50;;
18883;SDS011;9574;47.282;9.640;2024-03-23T04:37:31;1.70;;;1.50;;
18883;SDS011;9574;47.282;9.640;2024-03-23T04:39:58;5.67;;;1.53;;
18883;SDS011;9574;47.282;9.640;2024-03-23T04:42:27;1.60;;;1.10;;
18883;SDS011;9574;47.282;9.640;2024-03-23T04:44:54;2.20;;;1.27;;
18883;SDS011;9574;47.282;9.640;2024-03-23T04:47:21;1.37;;;1.27;;
18883;SDS011;9574;47.282;9.640;2024-03-23T04:49:48;2.80;;;1.73;;
18883;SDS011;9574;47.282;9.640;2024-03-23T04:52:15;1.97;;;1.20;;
18883;SDS011;9574;47.282;9.640;2024-03-23T04:54:42;3.07;;;1.30;;
18883;SDS011;9574;47.282;9.640;2024-03-23T04:57:10;1.70;;;1.40;;
18883;SDS011;9574;47.282;9.640;2024-03-23T04:59:38;2.50;;;1.40;;
18883;SDS011;9574;47.282;9.640;2024-03-23T05:02:04;2.70;;;1.27;;
18883;SDS011;9574;47.282;9.640;2024-03-23T05:04:30;2.60;;;1.40;;
18883;SDS011;9574;47.282;9.640;2024-03-23T05:06:57;2.13;;;1.40;;
18883;SDS011;9574;47.282;9.640;2024-03-23T05:09:23;4.70;;;1.77;;
18883;SDS011;9574;47.282;9.640;2024-03-23T05:11:55;2.43;;;1.80;;
18883;SDS011;9574;47.282;9.640;2024-03-23T05:14:20;2.53;;;2.00;;
18883;SDS011;9574;47.282;9.640;2024-03-23T05:16:49;3.77;;;2.10;;
18883;SDS011;9574;47.282;9.640;2024-03-23T05:19:15;1.77;;;1.67;;
18883;SDS011;9574;47.282;9.640;2024-03-23T05:21:42;2.03;;;1.83;;
18883;SDS011;9574;47.282;9.640;2024-03-23T05:24:08;2.13;;;1.53;;
18883;SDS011;9574;47.282;9.640;2024-03-23T05:26:35;4.00;;;1.70;;
18883;SDS011;9574;47.282;9.640;2024-03-23T05:29:01;4.10;;;1.87;;
18883;SDS011;9574;47.282;9.640;2024-03-23T05:31:29;2.07;;;1.50;;
18883;SDS011;9574;47.282;9.640;2024-03-23T05:33:57;1.93;;;1.30;;
18883;SDS011;9574;47.282;9.640;2024-03-23T05:36:24;5.20;;;1.57;;
18883;SDS011;9574;47.282;9.640;2024-03-23T05:38:50;2.40;;;1.40;;
18883;SDS011;9574;47.282;9.640;2024-03-23T05:41:17;1.83;;;1.53;;
18883;SDS011;9574;47.282;9.640;2024-03-23T05:43:43;3.07;;;1.60;;
18883;SDS011;9574;47.282;9.640;2024-03-23T05:46:11;2.30;;;1.43;;
18883;SDS011;9574;47.282;9.640;2024-03-23T05:48:36;1.70;;;1.37;;
18883;SDS011;9574;47.282;9.640;2024-03-23T05:51:05;1.37;;;1.27;;
18883;SDS011;9574;47.282;9.640;2024-03-23T05:53:31;2.87;;;1.57;;
18883;SDS011;9574;47.282;9.640;2024-03-23T05:56:02;2.53;;;1.60;;
18883;SDS011;9574;47.282;9.640;2024-03-23T05:58:29;2.17;;;1.83;;
18883;SDS011;9574;47.282;9.640;2024-03-23T06:00:59;4.13;;;2.30;;
18883;SDS011;9574;47.282;9.640;2024-03-23T06:03:26;5.40;;;2.87;;
18883;SDS011;9574;47.282;9.640;2024-03-23T06:05:53;2.90;;;2.10;;
18883;SDS011;9574;47.282;9.640;2024-03-23T06:08:21;3.37;;;1.87;;
18883;SDS011;9574;47.282;9.640;2024-03-23T06:10:49;3.17;;;1.97;;
18883;SDS011;9574;47.282;9.640;2024-03-23T06:13:15;2.67;;;2.37;;
18883;SDS011;9574;47.282;9.640;2024-03-23T06:15:43;2.60;;;1.87;;
18883;SDS011;9574;47.282;9.640;2024-03-23T06:18:10;4.13;;;2.93;;
18883;SDS011;9574;47.282;9.640;2024-03-23T06:20:37;8.83;;;3.83;;
18883;SDS011;9574;47.282;9.640;2024-03-23T06:23:03;4.13;;;2.67;;
18883;SDS011;9574;47.282;9.640;2024-03-23T06:25:32;5.47;;;2.80;;
18883;SDS011;9574;47.282;9.640;2024-03-23T06:27:58;7.27;;;3.10;;
18883;SDS011;9574;47.282;9.640;2024-03-23T06:30:26;3.43;;;2.20;;
18883;SDS011;9574;47.282;9.640;2024-03-23T06:32:52;1.93;;;1.73;;
18883;SDS011;9574;47.282;9.640;2024-03-23T06:35:19;2.53;;;1.90;;
18883;SDS011;9574;47.282;9.640;2024-03-23T06:37:45;2.40;;;1.63;;
18883;SDS011;9574;47.282;9.640;2024-03-23T06:40:12;2.23;;;1.77;;
18883;SDS011;9574;47.282;9.640;2024-03-23T06:42:40;2.07;;;1.57;;
18883;SDS011;9574;47.282;9.640;2024-03-23T06:45:07;3.37;;;2.00;;
18883;SDS011;9574;47.282;9.640;2024-03-23T06:47:33;4.90;;;2.10;;
18883;SDS011;9574;47.282;9.640;2024-03-23T06:50:03;2.80;;;1.40;;
18883;SDS011;9574;47.282;9.640;2024-03-23T06:52:30;2.70;;;1.33;;
18883;SDS011;9574;47.282;9.640;2024-03-23T06:54:57;3.43;;;1.70;;
18883;SDS011;9574;47.282;9.640;2024-03-23T06:57:23;2.07;;;1.50;;
18883;SDS011;9574;47.282;9.640;2024-03-23T06:59:52;1.87;;;1.30;;
18883;SDS011;9574;47.282;9.640;2024-03-23T07:02:18;2.10;;;1.50;;
18883;SDS011;9574;47.282;9.640;2024-03-23T07:04:45;1.60;;;1.50;;
18883;SDS011;9574;47.282;9.640;2024-03-23T07:07:11;1.03;;;0.90;;
18883;SDS011;9574;47.282;9.640;2024-03-23T07:09:38;3.03;;;1.30;;
18883;SDS011;9574;47.282;9.640;2024-03-23T07:12:04;1.43;;;1.00;;
18883;SDS011;9574;47.282;9.640;2024-03-23T07:14:31;3.50;;;1.50;;
18883;SDS011;9574;47.282;9.640;2024-03-23T07:17:00;2.87;;;1.50;;
18883;SDS011;9574;47.282;9.640;2024-03-23T07:19:26;3.07;;;1.50;;
18883;SDS011;9574;47.282;9.640;2024-03-23T07:21:53;2.47;;;1.30;;
18883;SDS011;9574;47.282;9.640;2024-03-23T07:24:19;3.10;;;1.73;;
18883;SDS011;9574;47.282;9.640;2024-03-23T07:26:46;2.13;;;1.40;;
18883;SDS011;9574;47.282;9.640;2024-03-23T07:29:13;5.97;;;1.70;;
18883;SDS011;9574;47.282;9.640;2024-03-23T07:31:39;3.27;;;1.57;;
18883;SDS011;9574;47.282;9.640;2024-03-23T07:34:08;2.53;;;1.63;;
18883;SDS011;9574;47.282;9.640;2024-03-23T07:36:34;1.40;;;1.30;;
18883;SDS011;9574;47.282;9.640;2024-03-23T07:39:00;2.30;;;1.60;;
18883;SDS011;9574;47.282;9.640;2024-03-23T07:41:28;4.20;;;1.70;;
18883;SDS011;9574;47.282;9.640;2024-03-23T07:43:55;1.20;;;1.03;;
18883;SDS011;9574;47.282;9.640;2024-03-23T07:46:22;1.97;;;1.20;;
18883;SDS011;9574;47.282;9.640;2024-03-23T07:48:50;1.83;;;1.30;;
18883;SDS011;9574;47.282;9.640;2024-03-23T07:51:20;1.27;;;1.17;;
18883;SDS011;9574;47.282;9.640;2024-03-23T07:53:47;2.93;;;1.27;;
18883;SDS011;9574;47.282;9.640;2024-03-23T07:56:15;1.27;;;1.17;;
18883;SDS011;9574;47.282;9.640;2024-03-23T07:58:41;3.60;;;1.30;;
18883;SDS011;9574;47.282;9.640;2024-03-23T08:01:09;2.33;;;1.20;;
18883;SDS011;9574;47.282;9.640;2024-03-23T08:03:35;0.80;;;0.80;;
18883;SDS011;9574;47.282;9.640;2024-03-23T08:06:07;1.23;;;1.00;;
18883;SDS011;9574;47.282;9.640;2024-03-23T08:08:35;1.30;;;1.20;;
18883;SDS011;9574;47.282;9.640;2024-03-23T08:11:02;1.67;;;1.00;;
18883;SDS011;9574;47.282;9.640;2024-03-23T08:13:28;1.20;;;1.00;;
18883;SDS011;9574;47.282;9.640;2024-03-23T08:15:56;2.27;;;1.30;;
18883;SDS011;9574;47.282;9.640;2024-03-23T08:18:22;1.23;;;1.00;;
18883;SDS011;9574;47.282;9.640;2024-03-23T08:20:55;1.43;;;1.20;;
18883;SDS011;9574;47.282;9.640;2024-03-23T08:23:21;0.70;;;0.70;;
18883;SDS011;9574;47.282;9.640;2024-03-23T08:25:50;0.63;;;0.63;;
18883;SDS011;9574;47.282;9.640;2024-03-23T08:28:16;1.40;;;0.90;;
18883;SDS011;9574;47.282;9.640;2024-03-23T08:30:43;0.93;;;0.80;;
18883;SDS011;9574;47.282;9.640;2024-03-23T08:33:09;1.00;;;0.90;;
18883;SDS011;9574;47.282;9.640;2024-03-23T08:35:36;1.87;;;1.00;;
18883;SDS011;9574;47.282;9.640;2024-03-23T08:38:02;0.70;;;0.70;;
18883;SDS011;9574;47.282;9.640;2024-03-23T08:40:29;0.83;;;0.70;;
18883;SDS011;9574;47.282;9.640;2024-03-23T08:42:57;0.60;;;0.60;;
18883;SDS011;9574;47.282;9.640;2024-03-23T08:45:24;0.70;;;0.70;;
18883;SDS011;9574;47.282;9.640;2024-03-23T08:47:50;0.53;;;0.53;;
18883;SDS011;9574;47.282;9.640;2024-03-23T08:50:17;0.97;;;0.73;;
18883;SDS011;9574;47.282;9.640;2024-03-23T08:52:43;0.70;;;0.70;;
18883;SDS011;9574;47.282;9.640;2024-03-23T08:55:10;0.70;;;0.70;;
18883;SDS011;9574;47.282;9.640;2024-03-23T08:57:36;0.57;;;0.57;;
18883;SDS011;9574;47.282;9.640;2024-03-23T09:00:05;0.70;;;0.70;;
18883;SDS011;9574;47.282;9.640;2024-03-23T09:02:34;0.80;;;0.80;;
18883;SDS011;9574;47.282;9.640;2024-03-23T09:05:01;0.80;;;0.67;;
18883;SDS011;9574;47.282;9.640;2024-03-23T09:07:29;0.87;;;0.70;;
18883;SDS011;9574;47.282;9.640;2024-03-23T09:09:56;1.87;;;0.80;;
18883;SDS011;9574;47.282;9.640;2024-03-23T09:12:22;0.97;;;0.87;;
18883;SDS011;9574;47.282;9.640;2024-03-23T09:14:49;2.03;;;0.90;;
18883;SDS011;9574;47.282;9.640;2024-03-23T09:17:17;0.90;;;0.90;;
18883;SDS011;9574;47.282;9.640;2024-03-23T09:19:44;0.80;;;0.80;;
18883;SDS011;9574;47.282;9.640;2024-03-23T09:22:10;0.60;;;0.60;;
18883;SDS011;9574;47.282;9.640;2024-03-23T09:24:38;1.63;;;0.70;;
18883;SDS011;9574;47.282;9.640;2024-03-23T09:27:04;0.60;;;0.60;;
18883;SDS011;9574;47.282;9.640;2024-03-23T09:29:31;1.70;;;0.73;;
18883;SDS011;9574;47.282;9.640;2024-03-23T09:31:57;0.73;;;0.60;;
18883;SDS011;9574;47.282;9.640;2024-03-23T09:34:26;0.60;;;0.60;;
18883;SDS011;9574;47.282;9.640;2024-03-23T09:36:52;0.80;;;0.80;;
18883;SDS011;9574;47.282;9.640;2024-03-23T09:39:19;0.80;;;0.80;;
18883;SDS011;9574;47.282;9.640;2024-03-23T09:41:45;2.77;;;1.60;;
18883;SDS011;9574;47.282;9.640;2024-03-23T09:44:12;2.17;;;1.37;;
18883;SDS011;9574;47.282;9.640;2024-03-23T09:46:38;1.13;;;1.00;;
18883;SDS011;9574;47.282;9.640;2024-03-23T09:49:05;0.57;;;0.57;;
18883;SDS011;9574;47.282;9.640;2024-03-23T09:51:36;0.40;;;0.40;;
18883;SDS011;9574;47.282;9.640;2024-03-23T09:54:03;0.47;;;0.47;;
18883;SDS011;9574;47.282;9.640;2024-03-23T09:56:29;0.50;;;0.50;;
18883;SDS011;9574;47.282;9.640;2024-03-23T09:59:02;0.50;;;0.50;;
18883;SDS011;9574;47.282;9.640;2024-03-23T10:01:29;0.60;;;0.60;;
18883;SDS011;9574;47.282;9.640;2024-03-23T10:03:56;0.60;;;0.60;;
18883;SDS011;9574;47.282;9.640;2024-03-23T10:06:22;0.40;;;0.40;;
18883;SDS011;9574;47.282;9.640;2024-03-23T10:08:52;0.50;;;0.50;;
18883;SDS011;9574;47.282;9.640;2024-03-23T10:11:20;0.57;;;0.57;;
18883;SDS011;9574;47.282;9.640;2024-03-23T10:13:47;0.40;;;0.40;;
18883;SDS011;9574;47.282;9.640;2024-03-23T10:16:20;0.30;;;0.30;;
18883;SDS011;9574;47.282;9.640;2024-03-23T10:18:48;0.87;;;0.60;;
18883;SDS011;9574;47.282;9.640;2024-03-23T10:21:15;0.50;;;0.50;;
18883;SDS011;9574;47.282;9.640;2024-03-23T10:23:43;0.50;;;0.50;;
18883;SDS011;9574;47.282;9.640;2024-03-23T10:26:15;2.83;;;0.50;;
18883;SDS011;9574;47.282;9.640;2024-03-23T10:28:56;2.17;;;1.20;;
18883;SDS011;9574;47.282;9.640;2024-03-23T10:31:24;0.80;;;0.60;;
18883;SDS011;9574;47.282;9.640;2024-03-23T10:33:52;0.97;;;0.80;;
18883;SDS011;9574;47.282;9.640;2024-03-23T10:36:19;0.73;;;0.73;;
18883;SDS011;9574;47.282;9.640;2024-03-23T10:38:47;0.60;;;0.60;;
18883;SDS011;9574;47.282;9.640;2024-03-23T10:41:15;1.13;;;0.80;;
18883;SDS011;9574;47.282;9.640;2024-03-23T10:43:43;1.57;;;0.77;;
18883;SDS011;9574;47.282;9.640;2024-03-23T10:46:11;1.33;;;0.60;;
18883;SDS011;9574;47.282;9.640;2024-03-23T10:48:38;1.80;;;0.60;;
18883;SDS011;9574;47.282;9.640;2024-03-23T10:51:05;1.47;;;1.13;;
18883;SDS011;9574;47.282;9.640;2024-03-23T10:53:33;2.00;;;0.80;;
18883;SDS011;9574;47.282;9.640;2024-03-23T10:56:02;2.30;;;1.10;;
18883;SDS011;9574;47.282;9.640;2024-03-23T10:58:33;1.90;;;1.07;;
18883;SDS011;9574;47.282;9.640;2024-03-23T11:01:03;1.53;;;0.80;;
18883;SDS011;9574;47.282;9.640;2024-03-23T11:03:31;2.17;;;0.90;;
18883;SDS011;9574;47.282;9.640;2024-03-23T11:05:58;3.10;;;1.20;;
18883;SDS011;9574;47.282;9.640;2024-03-23T11:08:29;3.97;;;1.40;;
18883;SDS011;9574;47.282;9.640;2024-03-23T11:11:11;3.13;;;1.40;;
18883;SDS011;9574;47.282;9.640;2024-03-23T11:13:40;2.53;;;1.20;;
18883;SDS011;9574;47.282;9.640;2024-03-23T11:16:15;4.33;;;1.10;;
18883;SDS011;9574;47.282;9.640;2024-03-23T11:18:43;1.77;;;1.27;;
18883;SDS011;9574;47.282;9.640;2024-03-23T11:21:09;1.90;;;1.03;;
18883;SDS011;9574;47.282;9.640;2024-03-23T11:23:37;2.07;;;1.17;;
18883;SDS011;9574;47.282;9.640;2024-03-23T11:26:06;4.00;;;1.77;;
18883;SDS011;9574;47.282;9.640;2024-03-23T11:28:34;3.60;;;1.60;;
18883;SDS011;9574;47.282;9.640;2024-03-23T11:31:01;5.60;;;2.17;;
18883;SDS011;9574;47.282;9.640;2024-03-23T11:33:35;4.03;;;1.83;;
18883;SDS011;9574;47.282;9.640;2024-03-23T11:36:01;5.43;;;2.30;;
18883;SDS011;9574;47.282;9.640;2024-03-23T11:38:28;3.50;;;1.03;;
18883;SDS011;9574;47.282;9.640;2024-03-23T11:40:54;3.83;;;1.33;;
18883;SDS011;9574;47.282;9.640;2024-03-23T11:43:21;1.37;;;1.20;;
18883;SDS011;9574;47.282;9.640;2024-03-23T11:45:47;8.23;;;3.17;;
18883;SDS011;9574;47.282;9.640;2024-03-23T11:48:19;3.37;;;2.00;;
18883;SDS011;9574;47.282;9.640;2024-03-23T11:50:47;2.87;;;2.00;;
18883;SDS011;9574;47.282;9.640;2024-03-23T11:53:15;4.90;;;2.43;;
18883;SDS011;9574;47.282;9.640;2024-03-23T11:55:43;6.47;;;3.77;;
18883;SDS011;9574;47.282;9.640;2024-03-23T11:58:14;5.57;;;2.60;;
18883;SDS011;9574;47.282;9.640;2024-03-23T12:00:41;3.10;;;2.57;;
18883;SDS011;9574;47.282;9.640;2024-03-23T12:03:08;3.00;;;1.60;;
18883;SDS011;9574;47.282;9.640;2024-03-23T12:05:36;3.77;;;0.90;;
18883;SDS011;9574;47.282;9.640;2024-03-23T12:08:17;2.60;;;1.50;;
18883;SDS011;9574;47.282;9.640;2024-03-23T12:10:44;4.10;;;1.20;;
18883;SDS011;9574;47.282;9.640;2024-03-23T12:13:14;7.13;;;1.30;;
18883;SDS011;9574;47.282;9.640;2024-03-23T12:15:42;6.43;;;2.30;;
18883;SDS011;9574;47.282;9.640;2024-03-23T12:18:10;6.40;;;1.70;;
18883;SDS011;9574;47.282;9.640;2024-03-23T12:20:37;4.37;;;1.23;;
18883;SDS011;9574;47.282;9.640;2024-03-23T12:23:05;8.77;;;2.80;;
18883;SDS011;9574;47.282;9.640;2024-03-23T12:25:32;2.37;;;1.17;;
18883;SDS011;9574;47.282;9.640;2024-03-23T12:27:59;4.57;;;1.20;;
18883;SDS011;9574;47.282;9.640;2024-03-23T12:30:25;1.63;;;1.10;;
18883;SDS011;9574;47.282;9.640;2024-03-23T12:32:52;3.03;;;1.50;;
18883;SDS011;9574;47.282;9.640;2024-03-23T12:35:18;5.57;;;1.03;;
18883;SDS011;9574;47.282;9.640;2024-03-23T12:37:46;2.47;;;1.20;;
18883;SDS011;9574;47.282;9.640;2024-03-23T12:40:12;4.20;;;1.70;;
18883;SDS011;9574;47.282;9.640;2024-03-23T12:42:39;4.97;;;1.23;;
18883;SDS011;9574;47.282;9.640;2024-03-23T12:45:05;3.67;;;1.33;;
18883;SDS011;9574;47.282;9.640;2024-03-23T12:50:01;1.27;;;1.10;;
18883;SDS011;9574;47.282;9.640;2024-03-23T12:52:28;3.37;;;1.30;;
18883;SDS011;9574;47.282;9.640;2024-03-23T12:54:56;1.17;;;1.00;;
18883;SDS011;9574;47.282;9.640;2024-03-23T12:57:23;5.97;;;2.20;;
18883;SDS011;9574;47.282;9.640;2024-03-23T12:59:50;5.00;;;1.60;;
18883;SDS011;9574;47.282;9.640;2024-03-23T13:02:18;4.10;;;1.20;;
18883;SDS011;9574;47.282;9.640;2024-03-23T13:04:44;4.20;;;1.10;;
18883;SDS011;9574;47.282;9.640;2024-03-23T13:07:12;6.20;;;1.40;;
18883;SDS011;9574;47.282;9.640;2024-03-23T13:09:38;4.10;;;1.30;;
18883;SDS011;9574;47.282;9.640;2024-03-23T13:12:07;4.27;;;1.30;;
18883;SDS011;9574;47.282;9.640;2024-03-23T13:14:33;2.67;;;1.00;;
18883;SDS011;9574;47.282;9.640;2024-03-23T13:17:01;2.93;;;1.40;;
18883;SDS011;9574;47.282;9.640;2024-03-23T13:19:27;6.27;;;3.40;;
18883;SDS011;9574;47.282;9.640;2024-03-23T13:21:56;4.93;;;2.40;;
18883;SDS011;9574;47.282;9.640;2024-03-23T13:24:22;4.67;;;1.40;;
18883;SDS011;9574;47.282;9.640;2024-03-23T13:26:50;2.83;;;1.33;;
18883;SDS011;9574;47.282;9.640;2024-03-23T13:29:18;3.53;;;1.37;;
18883;SDS011;9574;47.282;9.640;2024-03-23T13:31:45;5.13;;;1.70;;
18883;SDS011;9574;47.282;9.640;2024-03-23T13:34:11;4.33;;;1.80;;
18883;SDS011;9574;47.282;9.640;2024-03-23T13:36:40;3.17;;;1.50;;
18883;SDS011;9574;47.282;9.640;2024-03-23T13:39:06;1.80;;;1.20;;
18883;SDS011;9574;47.282;9.640;2024-03-23T13:41:36;3.43;;;1.57;;
18883;SDS011;9574;47.282;9.640;2024-03-23T13:44:03;1.70;;;1.00;;
18883;SDS011;9574;47.282;9.640;2024-03-23T13:46:32;4.60;;;1.40;;
18883;SDS011;9574;47.282;9.640;2024-03-23T13:48:58;5.47;;;1.27;;
18883;SDS011;9574;47.282;9.640;2024-03-23T13:51:26;1.40;;;1.10;;
18883;SDS011;9574;47.282;9.640;2024-03-23T13:53:52;4.03;;;2.10;;
18883;SDS011;9574;47.282;9.640;2024-03-23T13:56:19;1.43;;;1.33;;
18883;SDS011;9574;47.282;9.640;2024-03-23T13:58:45;3.43;;;1.30;;
18883;SDS011;9574;47.282;9.640;2024-03-23T14:01:15;2.90;;;1.40;;
18883;SDS011;9574;47.282;9.640;2024-03-23T14:03:43;3.23;;;1.30;;
18883;SDS011;9574;47.282;9.640;2024-03-23T14:06:10;4.50;;;1.50;;
18883;SDS011;9574;47.282;9.640;2024-03-23T14:08:36;5.37;;;1.73;;
18883;SDS011;9574;47.282;9.640;2024-03-23T14:11:05;6.37;;;1.57;;
18883;SDS011;9574;47.282;9.640;2024-03-23T14:13:31;4.03;;;1.43;;
18883;SDS011;9574;47.282;9.640;2024-03-23T14:15:58;5.37;;;2.07;;
18883;SDS011;9574;47.282;9.640;2024-03-23T14:18:24;4.00;;;1.40;;
18883;SDS011;9574;47.282;9.640;2024-03-23T14:20:56;3.00;;;1.30;;
18883;SDS011;9574;47.282;9.640;2024-03-23T14:23:23;1.53;;;1.20;;
18883;SDS011;9574;47.282;9.640;2024-03-23T14:25:52;0.87;;;0.80;;
18883;SDS011;9574;47.282;9.640;2024-03-23T14:28:19;2.57;;;0.90;;
18883;SDS011;9574;47.282;9.640;2024-03-23T14:30:47;2.83;;;1.30;;
18883;SDS011;9574;47.282;9.640;2024-03-23T14:33:13;2.20;;;1.07;;
18883;SDS011;9574;47.282;9.640;2024-03-23T14:35:40;3.00;;;1.03;;
18883;SDS011;9574;47.282;9.640;2024-03-23T14:38:08;2.13;;;0.90;;
18883;SDS011;9574;47.282;9.640;2024-03-23T14:40:35;3.00;;;1.10;;
18883;SDS011;9574;47.282;9.640;2024-03-23T14:43:01;1.40;;;1.23;;
18883;SDS011;9574;47.282;9.640;2024-03-23T14:45:28;2.67;;;1.17;;
18883;SDS011;9574;47.282;9.640;2024-03-23T14:47:54;3.60;;;1.17;;
18883;SDS011;9574;47.282;9.640;2024-03-23T14:50:23;2.07;;;1.03;;
18883;SDS011;9574;47.282;9.640;2024-03-23T14:52:49;4.10;;;1.40;;
18883;SDS011;9574;47.282;9.640;2024-03-23T14:55:18;3.00;;;1.30;;
18883;SDS011;9574;47.282;9.640;2024-03-23T14:57:44;3.63;;;1.50;;
18883;SDS011;9574;47.282;9.640;2024-03-23T15:00:11;1.70;;;1.30;;
18883;SDS011;9574;47.282;9.640;2024-03-23T15:02:38;1.70;;;1.40;;
18883;SDS011;9574;47.282;9.640;2024-03-23T15:05:05;4.10;;;1.53;;
18883;SDS011;9574;47.282;9.640;2024-03-23T15:07:34;3.77;;;1.27;;
18883;SDS011;9574;47.282;9.640;2024-03-23T15:10:02;2.00;;;1.20;;
18883;SDS011;9574;47.282;9.640;2024-03-23T15:12:31;2.83;;;1.70;;
18883;SDS011;9574;47.282;9.640;2024-03-23T15:14:59;3.93;;;1.40;;
18883;SDS011;9574;47.282;9.640;2024-03-23T15:17:25;3.00;;;1.37;;
18883;SDS011;9574;47.282;9.640;2024-03-23T15:19:52;6.20;;;1.40;;
18883;SDS011;9574;47.282;9.640;2024-03-23T15:22:18;4.83;;;1.60;;
18883;SDS011;9574;47.282;9.640;2024-03-23T15:24:46;3.30;;;1.80;;
18883;SDS011;9574;47.282;9.640;2024-03-23T15:27:12;4.63;;;2.00;;
18883;SDS011;9574;47.282;9.640;2024-03-23T15:29:40;5.60;;;2.00;;
18883;SDS011;9574;47.282;9.640;2024-03-23T15:32:10;2.23;;;1.70;;
18883;SDS011;9574;47.282;9.640;2024-03-23T15:34:39;2.47;;;1.17;;
18883;SDS011;9574;47.282;9.640;2024-03-23T15:37:05;2.77;;;1.43;;
18883;SDS011;9574;47.282;9.640;2024-03-23T15:39:32;6.50;;;1.53;;
18883;SDS011;9574;47.282;9.640;2024-03-23T15:41:58;2.40;;;1.30;;
18883;SDS011;9574;47.282;9.640;2024-03-23T15:44:25;4.77;;;1.43;;
18883;SDS011;9574;47.282;9.640;2024-03-23T15:46:52;6.93;;;1.17;;
18883;SDS011;9574;47.282;9.640;2024-03-23T15:49:19;3.70;;;1.20;;
18883;SDS011;9574;47.282;9.640;2024-03-23T15:51:45;2.67;;;1.37;;
18883;SDS011;9574;47.282;9.640;2024-03-23T15:54:12;2.40;;;1.00;;
18883;SDS011;9574;47.282;9.640;2024-03-23T15:56:38;2.23;;;1.10;;